sensor_id;sensor_type;location;lat;lon;timestamp;P1;durP1;ratioP1;P2;durP2;ratioP2
21170;SDS011;10743;52.160;20.910;2023-08-30T00:02:19;26.20;;;14.10;;
21170;SDS011;10743;52.160;20.910;2023-08-30T00:04:46;23.98;;;14.90;;
21170;SDS011;10743;52.160;20.910;2023-08-30T00:07:13;27.55;;;14.73;;
21170;SDS011;10743;52.160;20.910;2023-08-30T00:09:40;24.02;;;13.93;;
21170;SDS011;10743;52.160;20.910;2023-08-30T00:12:07;26.58;;;13.75;;
21170;SDS011;10743;52.160;20.910;2023-08-30T00:14:34;28.30;;;14.23;;
21170;SDS011;10743;52.160;20.910;2023-08-30T00:17:01;22.27;;;14.23;;
21170;SDS011;10743;52.160;20.910;2023-08-30T00:19:28;23.30;;;14.07;;
21170;SDS011;10743;52.160;20.910;2023-08-30T00:21:55;26.02;;;14.30;;
21170;SDS011;10743;52.160;20.910;2023-08-30T00:24:23;28.13;;;14.32;;
21170;SDS011;10743;52.160;20.910;2023-08-30T00:26:50;34.97;;;17.38;;
21170;SDS011;10743;52.160;20.910;2023-08-30T00:29:18;22.88;;;13.95;;
21170;SDS011;10743;52.160;20.910;2023-08-30T00:31:45;28.45;;;14.55;;
21170;SDS011;10743;52.160;20.910;2023-08-30T00:34:12;26.83;;;13.70;;
21170;SDS011;10743;52.160;20.910;2023-08-30T00:36:40;24.52;;;14.25;;
21170;SDS011;10743;52.160;20.910;2023-08-30T00:39:07;27.42;;;15.25;;
21170;SDS011;10743;52.160;20.910;2023-08-30T00:41:34;25.30;;;15.27;;
21170;SDS011;10743;52.160;20.910;2023-08-30T00:44:02;29.73;;;16.40;;
21170;SDS011;10743;52.160;20.910;2023-08-30T00:46:29;28.08;;;15.98;;
21170;SDS011;10743;52.160;20.910;2023-08-30T00:49:02;26.88;;;16.75;;
21170;SDS011;10743;52.160;20.910;2023-08-30T00:51:30;27.70;;;16.35;;
21170;SDS011;10743;52.160;20.910;2023-08-30T00:53:59;28.30;;;16.77;;
21170;SDS011;10743;52.160;20.910;2023-08-30T00:56:29;37.38;;;16.48;;
21170;SDS011;10743;52.160;20.910;2023-08-30T00:58:59;27.95;;;15.43;;
21170;SDS011;10743;52.160;20.910;2023-08-30T01:01:26;27.67;;;15.98;;
21170;SDS011;10743;52.160;20.910;2023-08-30T01:03:54;24.73;;;15.00;;
21170;SDS011;10743;52.160;20.910;2023-08-30T01:06:21;24.83;;;15.15;;
21170;SDS011;10743;52.160;20.910;2023-08-30T01:08:48;29.08;;;14.90;;
21170;SDS011;10743;52.160;20.910;2023-08-30T01:14:15;25.98;;;15.10;;
21170;SDS011;10743;52.160;20.910;2023-08-30T01:16:48;23.65;;;14.55;;
21170;SDS011;10743;52.160;20.910;2023-08-30T01:27:42;27.27;;;15.68;;
21170;SDS011;10743;52.160;20.910;2023-08-30T01:30:12;24.38;;;14.70;;
21170;SDS011;10743;52.160;20.910;2023-08-30T01:32:40;26.83;;;15.98;;
21170;SDS011;10743;52.160;20.910;2023-08-30T01:35:08;24.75;;;15.38;;
21170;SDS011;10743;52.160;20.910;2023-08-30T01:37:35;27.27;;;15.07;;
21170;SDS011;10743;52.160;20.910;2023-08-30T01:40:05;25.55;;;15.68;;
21170;SDS011;10743;52.160;20.910;2023-08-30T01:42:34;24.55;;;15.05;;
21170;SDS011;10743;52.160;20.910;2023-08-30T01:45:02;26.35;;;15.20;;
21170;SDS011;10743;52.160;20.910;2023-08-30T01:47:33;24.88;;;15.77;;
21170;SDS011;10743;52.160;20.910;2023-08-30T01:50:02;23.60;;;15.10;;
21170;SDS011;10743;52.160;20.910;2023-08-30T01:52:30;25.40;;;15.68;;
21170;SDS011;10743;52.160;20.910;2023-08-30T01:54:58;26.85;;;15.80;;
21170;SDS011;10743;52.160;20.910;2023-08-30T01:57:29;27.13;;;16.35;;
21170;SDS011;10743;52.160;20.910;2023-08-30T01:59:57;25.40;;;15.27;;
21170;SDS011;10743;52.160;20.910;2023-08-30T02:02:24;25.88;;;15.60;;
21170;SDS011;10743;52.160;20.910;2023-08-30T02:04:55;23.63;;;15.10;;
21170;SDS011;10743;52.160;20.910;2023-08-30T02:07:25;25.38;;;15.18;;
21170;SDS011;10743;52.160;20.910;2023-08-30T02:10:24;35.38;;;15.80;;
21170;SDS011;10743;52.160;20.910;2023-08-30T02:12:55;27.35;;;14.65;;
21170;SDS011;10743;52.160;20.910;2023-08-30T02:15:24;31.50;;;14.50;;
21170;SDS011;10743;52.160;20.910;2023-08-30T02:17:53;29.73;;;14.38;;
21170;SDS011;10743;52.160;20.910;2023-08-30T02:20:22;26.73;;;14.20;;
21170;SDS011;10743;52.160;20.910;2023-08-30T02:22:49;28.05;;;13.57;;
21170;SDS011;10743;52.160;20.910;2023-08-30T02:25:16;25.77;;;13.48;;
21170;SDS011;10743;52.160;20.910;2023-08-30T02:27:44;26.08;;;13.65;;
21170;SDS011;10743;52.160;20.910;2023-08-30T02:30:11;30.30;;;14.57;;
21170;SDS011;10743;52.160;20.910;2023-08-30T02:32:38;31.33;;;14.75;;
21170;SDS011;10743;52.160;20.910;2023-08-30T02:35:05;28.67;;;14.02;;
21170;SDS011;10743;52.160;20.910;2023-08-30T02:37:33;30.38;;;14.32;;
21170;SDS011;10743;52.160;20.910;2023-08-30T02:40:00;23.38;;;14.30;;
21170;SDS011;10743;52.160;20.910;2023-08-30T02:42:27;27.50;;;14.45;;
21170;SDS011;10743;52.160;20.910;2023-08-30T02:44:54;29.98;;;13.88;;
21170;SDS011;10743;52.160;20.910;2023-08-30T02:47:21;26.15;;;14.32;;
21170;SDS011;10743;52.160;20.910;2023-08-30T02:49:48;23.63;;;14.10;;
21170;SDS011;10743;52.160;20.910;2023-08-30T02:52:15;21.88;;;13.32;;
21170;SDS011;10743;52.160;20.910;2023-08-30T02:54:43;24.08;;;13.80;;
21170;SDS011;10743;52.160;20.910;2023-08-30T02:57:10;23.67;;;13.52;;
21170;SDS011;10743;52.160;20.910;2023-08-30T02:59:38;29.48;;;14.93;;
21170;SDS011;10743;52.160;20.910;2023-08-30T03:02:05;30.50;;;15.82;;
21170;SDS011;10743;52.160;20.910;2023-08-30T03:04:33;25.40;;;14.35;;
21170;SDS011;10743;52.160;20.910;2023-08-30T03:07:00;25.55;;;13.90;;
21170;SDS011;10743;52.160;20.910;2023-08-30T03:09:28;35.03;;;14.10;;
21170;SDS011;10743;52.160;20.910;2023-08-30T03:11:55;24.90;;;14.15;;
21170;SDS011;10743;52.160;20.910;2023-08-30T03:14:23;26.55;;;14.25;;
21170;SDS011;10743;52.160;20.910;2023-08-30T03:16:50;26.08;;;14.48;;
21170;SDS011;10743;52.160;20.910;2023-08-30T03:19:17;30.77;;;14.20;;
21170;SDS011;10743;52.160;20.910;2023-08-30T03:21:45;28.90;;;14.02;;
21170;SDS011;10743;52.160;20.910;2023-08-30T03:24:12;23.77;;;14.13;;
21170;SDS011;10743;52.160;20.910;2023-08-30T03:26:42;25.23;;;13.40;;
21170;SDS011;10743;52.160;20.910;2023-08-30T03:29:10;28.30;;;14.07;;
21170;SDS011;10743;52.160;20.910;2023-08-30T03:31:37;26.50;;;14.02;;
21170;SDS011;10743;52.160;20.910;2023-08-30T03:34:04;32.20;;;17.08;;
21170;SDS011;10743;52.160;20.910;2023-08-30T03:36:31;26.40;;;14.40;;
21170;SDS011;10743;52.160;20.910;2023-08-30T03:38:58;37.35;;;14.60;;
21170;SDS011;10743;52.160;20.910;2023-08-30T03:41:25;24.95;;;14.80;;
21170;SDS011;10743;52.160;20.910;2023-08-30T03:43:53;29.17;;;15.00;;
21170;SDS011;10743;52.160;20.910;2023-08-30T03:46:20;34.40;;;15.60;;
21170;SDS011;10743;52.160;20.910;2023-08-30T03:48:48;29.80;;;14.50;;
21170;SDS011;10743;52.160;20.910;2023-08-30T03:51:16;25.65;;;14.10;;
21170;SDS011;10743;52.160;20.910;2023-08-30T03:53:43;26.50;;;14.57;;
21170;SDS011;10743;52.160;20.910;2023-08-30T03:56:10;32.15;;;15.73;;
21170;SDS011;10743;52.160;20.910;2023-08-30T03:58:37;27.42;;;15.68;;
21170;SDS011;10743;52.160;20.910;2023-08-30T04:01:05;33.22;;;16.83;;
21170;SDS011;10743;52.160;20.910;2023-08-30T04:03:33;25.30;;;14.38;;
21170;SDS011;10743;52.160;20.910;2023-08-30T04:06:00;27.75;;;15.05;;
21170;SDS011;10743;52.160;20.910;2023-08-30T04:08:27;26.98;;;14.68;;
21170;SDS011;10743;52.160;20.910;2023-08-30T04:10:54;25.67;;;13.57;;
21170;SDS011;10743;52.160;20.910;2023-08-30T04:13:22;25.88;;;13.80;;
21170;SDS011;10743;52.160;20.910;2023-08-30T04:15:49;24.65;;;14.43;;
21170;SDS011;10743;52.160;20.910;2023-08-30T04:18:19;26.90;;;14.77;;
21170;SDS011;10743;52.160;20.910;2023-08-30T04:20:46;26.55;;;14.48;;
21170;SDS011;10743;52.160;20.910;2023-08-30T04:23:14;24.27;;;14.02;;
21170;SDS011;10743;52.160;20.910;2023-08-30T04:25:43;27.40;;;15.90;;
21170;SDS011;10743;52.160;20.910;2023-08-30T04:28:11;24.17;;;14.27;;
21170;SDS011;10743;52.160;20.910;2023-08-30T04:30:38;25.52;;;14.82;;
21170;SDS011;10743;52.160;20.910;2023-08-30T04:33:07;26.88;;;14.32;;
21170;SDS011;10743;52.160;20.910;2023-08-30T04:35:34;25.10;;;14.25;;
21170;SDS011;10743;52.160;20.910;2023-08-30T04:38:01;27.90;;;14.35;;
21170;SDS011;10743;52.160;20.910;2023-08-30T04:40:30;30.70;;;15.13;;
21170;SDS011;10743;52.160;20.910;2023-08-30T04:42:59;29.67;;;16.08;;
21170;SDS011;10743;52.160;20.910;2023-08-30T04:45:27;25.63;;;14.40;;
21170;SDS011;10743;52.160;20.910;2023-08-30T04:47:54;31.05;;;16.38;;
21170;SDS011;10743;52.160;20.910;2023-08-30T04:50:24;29.95;;;14.85;;
21170;SDS011;10743;52.160;20.910;2023-08-30T04:52:51;33.33;;;15.73;;
21170;SDS011;10743;52.160;20.910;2023-08-30T04:55:19;28.05;;;15.88;;
21170;SDS011;10743;52.160;20.910;2023-08-30T04:57:46;33.83;;;15.30;;
21170;SDS011;10743;52.160;20.910;2023-08-30T05:00:16;26.70;;;15.27;;
21170;SDS011;10743;52.160;20.910;2023-08-30T05:02:45;30.98;;;14.82;;
21170;SDS011;10743;52.160;20.910;2023-08-30T05:05:14;32.72;;;15.52;;
21170;SDS011;10743;52.160;20.910;2023-08-30T05:07:41;28.38;;;15.43;;
21170;SDS011;10743;52.160;20.910;2023-08-30T05:10:09;29.25;;;15.15;;
21170;SDS011;10743;52.160;20.910;2023-08-30T05:12:36;35.20;;;15.48;;
21170;SDS011;10743;52.160;20.910;2023-08-30T05:15:04;29.52;;;14.73;;
21170;SDS011;10743;52.160;20.910;2023-08-30T05:17:31;27.05;;;14.32;;
21170;SDS011;10743;52.160;20.910;2023-08-30T05:19:59;25.60;;;14.43;;
21170;SDS011;10743;52.160;20.910;2023-08-30T05:22:26;26.48;;;14.73;;
21170;SDS011;10743;52.160;20.910;2023-08-30T05:24:53;26.25;;;13.25;;
21170;SDS011;10743;52.160;20.910;2023-08-30T05:27:21;23.80;;;13.52;;
21170;SDS011;10743;52.160;20.910;2023-08-30T05:29:48;21.58;;;13.05;;
21170;SDS011;10743;52.160;20.910;2023-08-30T05:32:15;29.23;;;13.57;;
21170;SDS011;10743;52.160;20.910;2023-08-30T05:34:45;25.02;;;13.00;;
21170;SDS011;10743;52.160;20.910;2023-08-30T05:37:24;25.08;;;12.32;;
21170;SDS011;10743;52.160;20.910;2023-08-30T05:40:11;27.23;;;13.15;;
21170;SDS011;10743;52.160;20.910;2023-08-30T05:42:43;23.70;;;12.43;;
21170;SDS011;10743;52.160;20.910;2023-08-30T05:45:11;21.48;;;12.13;;
21170;SDS011;10743;52.160;20.910;2023-08-30T05:47:39;25.98;;;12.38;;
21170;SDS011;10743;52.160;20.910;2023-08-30T05:50:07;20.48;;;11.93;;
21170;SDS011;10743;52.160;20.910;2023-08-30T05:52:34;25.02;;;12.05;;
21170;SDS011;10743;52.160;20.910;2023-08-30T05:55:02;22.65;;;12.35;;
21170;SDS011;10743;52.160;20.910;2023-08-30T05:57:29;26.65;;;12.20;;
21170;SDS011;10743;52.160;20.910;2023-08-30T06:00:00;25.13;;;12.55;;
21170;SDS011;10743;52.160;20.910;2023-08-30T06:02:39;24.40;;;11.48;;
21170;SDS011;10743;52.160;20.910;2023-08-30T06:05:06;24.50;;;10.85;;
21170;SDS011;10743;52.160;20.910;2023-08-30T06:07:34;18.75;;;10.20;;
21170;SDS011;10743;52.160;20.910;2023-08-30T06:10:01;18.48;;;9.88;;
21170;SDS011;10743;52.160;20.910;2023-08-30T06:12:29;19.58;;;9.45;;
21170;SDS011;10743;52.160;20.910;2023-08-30T06:14:56;17.25;;;10.27;;
21170;SDS011;10743;52.160;20.910;2023-08-30T06:17:23;17.98;;;10.02;;
21170;SDS011;10743;52.160;20.910;2023-08-30T06:19:50;23.40;;;9.98;;
21170;SDS011;10743;52.160;20.910;2023-08-30T06:22:18;20.25;;;10.23;;
21170;SDS011;10743;52.160;20.910;2023-08-30T06:24:45;19.00;;;10.32;;
21170;SDS011;10743;52.160;20.910;2023-08-30T06:27:12;16.92;;;10.07;;
21170;SDS011;10743;52.160;20.910;2023-08-30T06:29:39;21.75;;;10.13;;
21170;SDS011;10743;52.160;20.910;2023-08-30T06:32:06;18.73;;;10.20;;
21170;SDS011;10743;52.160;20.910;2023-08-30T06:34:33;21.60;;;10.88;;
21170;SDS011;10743;52.160;20.910;2023-08-30T06:37:00;21.85;;;11.27;;
21170;SDS011;10743;52.160;20.910;2023-08-30T06:39:34;22.88;;;12.07;;
21170;SDS011;10743;52.160;20.910;2023-08-30T06:42:03;22.75;;;10.60;;
21170;SDS011;10743;52.160;20.910;2023-08-30T06:44:30;22.63;;;11.38;;
21170;SDS011;10743;52.160;20.910;2023-08-30T06:46:58;20.70;;;10.80;;
21170;SDS011;10743;52.160;20.910;2023-08-30T06:49:28;25.55;;;12.55;;
21170;SDS011;10743;52.160;20.910;2023-08-30T06:51:57;22.88;;;12.25;;
21170;SDS011;10743;52.160;20.910;2023-08-30T06:54:25;27.08;;;11.90;;
21170;SDS011;10743;52.160;20.910;2023-08-30T06:57:02;29.55;;;12.07;;
21170;SDS011;10743;52.160;20.910;2023-08-30T06:59:29;32.35;;;12.60;;
21170;SDS011;10743;52.160;20.910;2023-08-30T07:01:56;35.80;;;12.60;;
21170;SDS011;10743;52.160;20.910;2023-08-30T07:04:23;26.90;;;12.35;;
21170;SDS011;10743;52.160;20.910;2023-08-30T07:06:50;25.63;;;13.13;;
21170;SDS011;10743;52.160;20.910;2023-08-30T07:09:18;23.67;;;12.18;;
21170;SDS011;10743;52.160;20.910;2023-08-30T07:11:48;18.85;;;10.88;;
21170;SDS011;10743;52.160;20.910;2023-08-30T07:14:15;20.95;;;10.80;;
21170;SDS011;10743;52.160;20.910;2023-08-30T07:16:42;22.20;;;11.05;;
21170;SDS011;10743;52.160;20.910;2023-08-30T07:19:09;23.25;;;11.15;;
21170;SDS011;10743;52.160;20.910;2023-08-30T07:21:36;25.38;;;11.93;;
21170;SDS011;10743;52.160;20.910;2023-08-30T07:24:06;25.45;;;11.88;;
21170;SDS011;10743;52.160;20.910;2023-08-30T07:26:34;23.92;;;12.40;;
21170;SDS011;10743;52.160;20.910;2023-08-30T07:29:02;29.48;;;13.48;;
21170;SDS011;10743;52.160;20.910;2023-08-30T07:31:34;23.52;;;13.27;;
21170;SDS011;10743;52.160;20.910;2023-08-30T07:34:02;22.92;;;12.93;;
21170;SDS011;10743;52.160;20.910;2023-08-30T07:36:29;23.75;;;11.65;;
21170;SDS011;10743;52.160;20.910;2023-08-30T07:39:12;23.35;;;12.38;;
21170;SDS011;10743;52.160;20.910;2023-08-30T07:41:39;23.35;;;12.48;;
21170;SDS011;10743;52.160;20.910;2023-08-30T07:44:06;26.27;;;13.68;;
21170;SDS011;10743;52.160;20.910;2023-08-30T07:46:33;25.40;;;12.52;;
21170;SDS011;10743;52.160;20.910;2023-08-30T07:49:00;26.88;;;12.27;;
21170;SDS011;10743;52.160;20.910;2023-08-30T07:51:27;24.02;;;12.65;;
21170;SDS011;10743;52.160;20.910;2023-08-30T07:53:54;30.90;;;11.68;;
21170;SDS011;10743;52.160;20.910;2023-08-30T07:56:21;25.15;;;11.40;;
21170;SDS011;10743;52.160;20.910;2023-08-30T07:58:48;24.55;;;11.32;;
21170;SDS011;10743;52.160;20.910;2023-08-30T08:01:16;29.25;;;12.70;;
21170;SDS011;10743;52.160;20.910;2023-08-30T08:03:43;23.05;;;12.10;;
21170;SDS011;10743;52.160;20.910;2023-08-30T08:06:25;22.13;;;11.85;;
21170;SDS011;10743;52.160;20.910;2023-08-30T08:08:53;21.88;;;11.35;;
21170;SDS011;10743;52.160;20.910;2023-08-30T08:11:20;23.73;;;10.73;;
21170;SDS011;10743;52.160;20.910;2023-08-30T08:13:47;21.23;;;11.02;;
21170;SDS011;10743;52.160;20.910;2023-08-30T08:16:14;26.15;;;10.98;;
21170;SDS011;10743;52.160;20.910;2023-08-30T08:18:42;23.95;;;11.23;;
21170;SDS011;10743;52.160;20.910;2023-08-30T08:21:08;21.63;;;10.02;;
21170;SDS011;10743;52.160;20.910;2023-08-30T08:23:36;22.80;;;8.95;;
21170;SDS011;10743;52.160;20.910;2023-08-30T08:26:03;21.45;;;8.95;;
21170;SDS011;10743;52.160;20.910;2023-08-30T08:28:30;19.58;;;8.57;;
21170;SDS011;10743;52.160;20.910;2023-08-30T08:30:57;14.65;;;8.80;;
21170;SDS011;10743;52.160;20.910;2023-08-30T08:33:24;18.75;;;8.45;;
21170;SDS011;10743;52.160;20.910;2023-08-30T08:35:51;24.98;;;8.38;;
21170;SDS011;10743;52.160;20.910;2023-08-30T08:38:18;20.63;;;8.75;;
21170;SDS011;10743;52.160;20.910;2023-08-30T08:40:46;12.85;;;7.43;;
21170;SDS011;10743;52.160;20.910;2023-08-30T08:43:13;14.57;;;8.57;;
21170;SDS011;10743;52.160;20.910;2023-08-30T08:45:42;14.05;;;6.55;;
21170;SDS011;10743;52.160;20.910;2023-08-30T08:48:10;14.98;;;6.88;;
21170;SDS011;10743;52.160;20.910;2023-08-30T08:50:39;21.50;;;7.35;;
21170;SDS011;10743;52.160;20.910;2023-08-30T08:53:07;12.13;;;7.45;;
21170;SDS011;10743;52.160;20.910;2023-08-30T08:55:35;17.10;;;8.43;;
21170;SDS011;10743;52.160;20.910;2023-08-30T08:58:03;16.35;;;7.10;;
21170;SDS011;10743;52.160;20.910;2023-08-30T09:00:30;12.02;;;6.90;;
21170;SDS011;10743;52.160;20.910;2023-08-30T09:02:58;14.57;;;6.55;;
21170;SDS011;10743;52.160;20.910;2023-08-30T09:05:27;11.70;;;6.70;;
21170;SDS011;10743;52.160;20.910;2023-08-30T09:07:55;17.13;;;8.05;;
21170;SDS011;10743;52.160;20.910;2023-08-30T09:10:23;23.23;;;11.30;;
21170;SDS011;10743;52.160;20.910;2023-08-30T09:12:50;13.93;;;8.15;;
21170;SDS011;10743;52.160;20.910;2023-08-30T09:15:17;14.95;;;8.05;;
21170;SDS011;10743;52.160;20.910;2023-08-30T09:17:47;14.70;;;7.40;;
21170;SDS011;10743;52.160;20.910;2023-08-30T09:20:14;15.48;;;7.43;;
21170;SDS011;10743;52.160;20.910;2023-08-30T09:22:42;14.60;;;7.80;;
21170;SDS011;10743;52.160;20.910;2023-08-30T09:25:10;19.20;;;9.48;;
21170;SDS011;10743;52.160;20.910;2023-08-30T09:27:51;19.13;;;8.75;;
21170;SDS011;10743;52.160;20.910;2023-08-30T09:30:26;12.80;;;7.68;;
21170;SDS011;10743;52.160;20.910;2023-08-30T09:32:53;12.02;;;6.80;;
21170;SDS011;10743;52.160;20.910;2023-08-30T09:35:20;11.55;;;6.38;;
21170;SDS011;10743;52.160;20.910;2023-08-30T09:37:47;11.10;;;6.82;;
21170;SDS011;10743;52.160;20.910;2023-08-30T09:40:20;10.77;;;6.72;;
21170;SDS011;10743;52.160;20.910;2023-08-30T09:42:48;12.73;;;7.38;;
21170;SDS011;10743;52.160;20.910;2023-08-30T09:45:35;12.65;;;7.15;;
21170;SDS011;10743;52.160;20.910;2023-08-30T09:48:02;12.48;;;7.63;;
21170;SDS011;10743;52.160;20.910;2023-08-30T09:50:33;17.77;;;7.97;;
21170;SDS011;10743;52.160;20.910;2023-08-30T09:53:08;15.57;;;7.82;;
21170;SDS011;10743;52.160;20.910;2023-08-30T09:55:37;12.02;;;7.38;;
21170;SDS011;10743;52.160;20.910;2023-08-30T09:58:04;15.48;;;7.70;;
21170;SDS011;10743;52.160;20.910;2023-08-30T10:00:32;15.85;;;7.82;;
21170;SDS011;10743;52.160;20.910;2023-08-30T10:03:02;20.67;;;8.45;;
21170;SDS011;10743;52.160;20.910;2023-08-30T10:05:33;14.75;;;7.72;;
21170;SDS011;10743;52.160;20.910;2023-08-30T10:08:02;12.52;;;7.53;;
21170;SDS011;10743;52.160;20.910;2023-08-30T10:10:31;11.90;;;6.85;;
21170;SDS011;10743;52.160;20.910;2023-08-30T10:12:58;8.50;;;5.95;;
21170;SDS011;10743;52.160;20.910;2023-08-30T10:15:43;12.68;;;6.90;;
21170;SDS011;10743;52.160;20.910;2023-08-30T10:18:15;15.70;;;7.30;;
21170;SDS011;10743;52.160;20.910;2023-08-30T10:20:47;10.75;;;6.28;;
21170;SDS011;10743;52.160;20.910;2023-08-30T10:23:21;12.70;;;6.18;;
21170;SDS011;10743;52.160;20.910;2023-08-30T10:25:49;12.10;;;6.70;;
21170;SDS011;10743;52.160;20.910;2023-08-30T10:28:18;10.73;;;6.45;;
21170;SDS011;10743;52.160;20.910;2023-08-30T10:30:47;19.00;;;6.10;;
21170;SDS011;10743;52.160;20.910;2023-08-30T10:33:15;13.13;;;7.32;;
21170;SDS011;10743;52.160;20.910;2023-08-30T10:35:48;10.15;;;6.05;;
21170;SDS011;10743;52.160;20.910;2023-08-30T10:38:24;11.30;;;6.43;;
21170;SDS011;10743;52.160;20.910;2023-08-30T10:40:55;10.30;;;6.25;;
21170;SDS011;10743;52.160;20.910;2023-08-30T10:43:34;9.85;;;5.88;;
21170;SDS011;10743;52.160;20.910;2023-08-30T10:46:04;10.75;;;6.90;;
21170;SDS011;10743;52.160;20.910;2023-08-30T10:48:38;14.60;;;7.68;;
21170;SDS011;10743;52.160;20.910;2023-08-30T10:51:20;15.77;;;6.82;;
21170;SDS011;10743;52.160;20.910;2023-08-30T10:54:15;7.97;;;4.78;;
21170;SDS011;10743;52.160;20.910;2023-08-30T10:56:55;8.50;;;4.63;;
21170;SDS011;10743;52.160;20.910;2023-08-30T10:59:27;6.68;;;4.30;;
21170;SDS011;10743;52.160;20.910;2023-08-30T11:01:56;10.90;;;5.10;;
21170;SDS011;10743;52.160;20.910;2023-08-30T11:04:27;5.97;;;3.78;;
21170;SDS011;10743;52.160;20.910;2023-08-30T11:06:54;5.85;;;4.00;;
21170;SDS011;10743;52.160;20.910;2023-08-30T11:09:22;6.65;;;4.25;;
21170;SDS011;10743;52.160;20.910;2023-08-30T11:11:51;7.78;;;4.68;;
21170;SDS011;10743;52.160;20.910;2023-08-30T11:14:18;8.85;;;4.25;;
21170;SDS011;10743;52.160;20.910;2023-08-30T11:16:45;9.95;;;4.80;;
21170;SDS011;10743;52.160;20.910;2023-08-30T11:19:12;7.43;;;4.95;;
21170;SDS011;10743;52.160;20.910;2023-08-30T11:21:43;9.25;;;4.68;;
21170;SDS011;10743;52.160;20.910;2023-08-30T11:24:11;8.15;;;4.20;;
21170;SDS011;10743;52.160;20.910;2023-08-30T11:26:39;7.65;;;4.85;;
21170;SDS011;10743;52.160;20.910;2023-08-30T11:29:06;7.28;;;4.88;;
21170;SDS011;10743;52.160;20.910;2023-08-30T11:31:34;8.57;;;4.88;;
21170;SDS011;10743;52.160;20.910;2023-08-30T11:34:02;10.48;;;4.70;;
21170;SDS011;10743;52.160;20.910;2023-08-30T11:36:30;7.05;;;3.65;;
21170;SDS011;10743;52.160;20.910;2023-08-30T11:38:58;6.28;;;3.78;;
21170;SDS011;10743;52.160;20.910;2023-08-30T11:41:26;8.18;;;4.10;;
21170;SDS011;10743;52.160;20.910;2023-08-30T11:43:53;7.05;;;4.50;;
21170;SDS011;10743;52.160;20.910;2023-08-30T11:46:21;8.73;;;4.25;;
21170;SDS011;10743;52.160;20.910;2023-08-30T11:48:49;7.53;;;4.32;;
21170;SDS011;10743;52.160;20.910;2023-08-30T11:51:18;6.30;;;4.15;;
21170;SDS011;10743;52.160;20.910;2023-08-30T11:53:45;8.05;;;4.40;;
21170;SDS011;10743;52.160;20.910;2023-08-30T11:56:13;6.38;;;4.82;;
21170;SDS011;10743;52.160;20.910;2023-08-30T11:58:41;7.85;;;4.93;;
21170;SDS011;10743;52.160;20.910;2023-08-30T12:01:08;7.55;;;4.68;;
21170;SDS011;10743;52.160;20.910;2023-08-30T12:03:35;7.85;;;4.65;;
21170;SDS011;10743;52.160;20.910;2023-08-30T12:06:08;7.78;;;4.57;;
21170;SDS011;10743;52.160;20.910;2023-08-30T12:08:38;8.63;;;5.32;;
21170;SDS011;10743;52.160;20.910;2023-08-30T12:11:06;9.10;;;4.60;;
21170;SDS011;10743;52.160;20.910;2023-08-30T12:13:46;10.40;;;5.40;;
21170;SDS011;10743;52.160;20.910;2023-08-30T12:16:15;9.32;;;5.30;;
21170;SDS011;10743;52.160;20.910;2023-08-30T12:18:47;15.82;;;5.10;;
21170;SDS011;10743;52.160;20.910;2023-08-30T12:21:14;10.90;;;5.03;;
21170;SDS011;10743;52.160;20.910;2023-08-30T12:23:41;9.23;;;4.68;;
21170;SDS011;10743;52.160;20.910;2023-08-30T12:26:09;7.53;;;3.97;;
21170;SDS011;10743;52.160;20.910;2023-08-30T12:28:40;6.97;;;4.10;;
21170;SDS011;10743;52.160;20.910;2023-08-30T12:31:11;9.45;;;4.47;;
21170;SDS011;10743;52.160;20.910;2023-08-30T12:33:38;7.50;;;4.45;;
21170;SDS011;10743;52.160;20.910;2023-08-30T12:36:07;12.20;;;5.20;;
21170;SDS011;10743;52.160;20.910;2023-08-30T12:38:34;7.35;;;3.88;;
21170;SDS011;10743;52.160;20.910;2023-08-30T12:41:01;8.98;;;4.55;;
21170;SDS011;10743;52.160;20.910;2023-08-30T12:43:28;6.85;;;4.10;;
21170;SDS011;10743;52.160;20.910;2023-08-30T12:45:55;8.48;;;4.20;;
21170;SDS011;10743;52.160;20.910;2023-08-30T12:48:23;6.63;;;4.20;;
21170;SDS011;10743;52.160;20.910;2023-08-30T12:50:50;8.90;;;3.92;;
21170;SDS011;10743;52.160;20.910;2023-08-30T12:53:17;6.55;;;4.03;;
21170;SDS011;10743;52.160;20.910;2023-08-30T12:55:44;9.02;;;4.50;;
21170;SDS011;10743;52.160;20.910;2023-08-30T12:58:11;7.72;;;4.20;;
21170;SDS011;10743;52.160;20.910;2023-08-30T13:00:40;7.22;;;4.30;;
21170;SDS011;10743;52.160;20.910;2023-08-30T13:03:07;11.07;;;5.20;;
21170;SDS011;10743;52.160;20.910;2023-08-30T13:05:35;10.93;;;5.22;;
21170;SDS011;10743;52.160;20.910;2023-08-30T13:08:02;12.13;;;4.95;;
21170;SDS011;10743;52.160;20.910;2023-08-30T13:10:30;7.65;;;4.00;;
21170;SDS011;10743;52.160;20.910;2023-08-30T13:12:57;5.03;;;3.53;;
21170;SDS011;10743;52.160;20.910;2023-08-30T13:15:25;6.38;;;3.95;;
21170;SDS011;10743;52.160;20.910;2023-08-30T13:17:52;8.35;;;4.30;;
21170;SDS011;10743;52.160;20.910;2023-08-30T13:20:19;7.15;;;4.32;;
21170;SDS011;10743;52.160;20.910;2023-08-30T13:22:47;7.78;;;4.25;;
21170;SDS011;10743;52.160;20.910;2023-08-30T13:25:14;5.65;;;3.83;;
21170;SDS011;10743;52.160;20.910;2023-08-30T13:27:41;5.65;;;3.78;;
21170;SDS011;10743;52.160;20.910;2023-08-30T13:30:08;4.65;;;3.42;;
21170;SDS011;10743;52.160;20.910;2023-08-30T13:32:36;6.10;;;3.85;;
21170;SDS011;10743;52.160;20.910;2023-08-30T13:35:04;6.50;;;3.83;;
21170;SDS011;10743;52.160;20.910;2023-08-30T13:37:31;9.23;;;3.63;;
21170;SDS011;10743;52.160;20.910;2023-08-30T13:39:59;5.95;;;3.80;;
21170;SDS011;10743;52.160;20.910;2023-08-30T13:42:26;5.07;;;3.83;;
21170;SDS011;10743;52.160;20.910;2023-08-30T13:44:53;6.25;;;3.53;;
21170;SDS011;10743;52.160;20.910;2023-08-30T13:47:20;8.60;;;3.90;;
21170;SDS011;10743;52.160;20.910;2023-08-30T13:49:48;5.90;;;3.67;;
21170;SDS011;10743;52.160;20.910;2023-08-30T13:52:15;6.32;;;3.53;;
21170;SDS011;10743;52.160;20.910;2023-08-30T13:54:42;8.93;;;4.22;;
21170;SDS011;10743;52.160;20.910;2023-08-30T13:57:10;6.80;;;3.85;;
21170;SDS011;10743;52.160;20.910;2023-08-30T13:59:37;6.70;;;4.25;;
21170;SDS011;10743;52.160;20.910;2023-08-30T14:02:04;7.93;;;4.63;;
21170;SDS011;10743;52.160;20.910;2023-08-30T14:04:31;5.70;;;3.67;;
21170;SDS011;10743;52.160;20.910;2023-08-30T14:06:59;7.07;;;3.65;;
21170;SDS011;10743;52.160;20.910;2023-08-30T14:09:26;4.78;;;3.30;;
21170;SDS011;10743;52.160;20.910;2023-08-30T14:11:53;4.32;;;3.03;;
21170;SDS011;10743;52.160;20.910;2023-08-30T14:14:22;5.18;;;3.15;;
21170;SDS011;10743;52.160;20.910;2023-08-30T14:16:49;4.53;;;3.20;;
21170;SDS011;10743;52.160;20.910;2023-08-30T14:19:16;6.70;;;3.17;;
21170;SDS011;10743;52.160;20.910;2023-08-30T14:21:43;4.57;;;2.85;;
21170;SDS011;10743;52.160;20.910;2023-08-30T14:24:10;5.25;;;3.13;;
21170;SDS011;10743;52.160;20.910;2023-08-30T14:26:38;4.88;;;3.00;;
21170;SDS011;10743;52.160;20.910;2023-08-30T14:29:05;5.32;;;3.30;;
21170;SDS011;10743;52.160;20.910;2023-08-30T14:31:32;4.90;;;2.95;;
21170;SDS011;10743;52.160;20.910;2023-08-30T14:33:59;10.07;;;5.10;;
21170;SDS011;10743;52.160;20.910;2023-08-30T14:36:27;11.10;;;5.13;;
21170;SDS011;10743;52.160;20.910;2023-08-30T14:38:54;4.30;;;2.70;;